METAR Data

Data at: 0945 UTC 17 Nov 2018

METAR for:KLGA (New York/La Guardia, NY, US)
Text:KLGA 170851Z 25010G19KT 10SM SCT042 05/M01 A3003 RMK AO2 SLP167 T00501011 51015
Temperature: 5.0°C ( 41°F)
Dewpoint: -1.1°C ( 30°F) [RH = 65%]
Pressure (altimeter):30.03 inches Hg (1017.0 mb) [Sea level pressure: 1016.7 mb]
Winds:from the WSW (250 degrees) at 12 MPH (10 knots; 5.1 m/s) gusting to 22 MPH (19 knots; 9.8 m/s)
Visibility:10 or more sm (16+ km)
Ceiling:at least 12,000 feet AGL
Clouds: scattered clouds at 4200 feet AGL